createdAt,value
2019-05-29T00:01:56.395Z,4.67
2019-05-29T00:06:57.915Z,5.47
2019-05-29T00:11:59.297Z,4.37
2019-05-29T00:17:01.093Z,5.57
2019-05-29T00:22:02.960Z,4.70
2019-05-29T00:27:05.405Z,4.70
2019-05-29T00:32:07.323Z,4.73
2019-05-29T00:37:08.621Z,7.00
2019-05-29T00:42:11.087Z,6.30
2019-05-29T00:47:13.651Z,9.87
2019-05-29T00:52:16.632Z,5.57
2019-05-29T00:57:19.020Z,7.20
2019-05-29T01:02:20.756Z,5.70
2019-05-29T01:07:22.543Z,6.17
2019-05-29T01:12:24.471Z,6.83
2019-05-29T01:17:25.964Z,8.00
2019-05-29T01:22:27.463Z,6.10
2019-05-29T01:27:29.305Z,6.37
2019-05-29T01:32:31.046Z,10.30
2019-05-29T01:37:32.534Z,6.67
2019-05-29T01:42:34.051Z,8.00
2019-05-29T01:47:36.626Z,10.03
2019-05-29T01:52:38.303Z,7.20
2019-05-29T01:57:39.834Z,6.40
2019-05-29T02:02:41.351Z,5.90
2019-05-29T02:07:43.028Z,6.47
2019-05-29T02:12:44.567Z,8.40
2019-05-29T02:17:45.947Z,6.27
2019-05-29T02:22:47.467Z,6.50
2019-05-29T02:27:49.209Z,6.60
2019-05-29T02:32:50.698Z,6.13
2019-05-29T02:37:52.236Z,6.77
2019-05-29T02:42:54.376Z,6.37
2019-05-29T02:47:55.894Z,5.43
2019-05-29T02:52:57.730Z,5.57
2019-05-29T02:57:59.263Z,7.70
2019-05-29T03:03:01.076Z,5.77
2019-05-29T03:08:02.648Z,7.03
2019-05-29T03:13:03.976Z,6.33
2019-05-29T03:18:05.524Z,5.17
2019-05-29T03:23:07.017Z,6.07
2019-05-29T03:28:08.461Z,5.93
2019-05-29T03:33:10.439Z,5.77
2019-05-29T03:38:12.397Z,6.67
2019-05-29T03:43:13.913Z,8.40
2019-05-29T03:48:15.315Z,8.00
2019-05-29T03:53:17.017Z,6.47
2019-05-29T03:58:18.889Z,7.33
2019-05-29T04:03:20.455Z,6.70
2019-05-29T04:08:22.081Z,6.53
2019-05-29T04:13:23.616Z,5.83
2019-05-29T04:18:27.482Z,8.83
2019-05-29T04:23:34.194Z,9.17
2019-05-29T04:28:38.896Z,9.20
2019-05-29T04:33:40.147Z,12.40
2019-05-29T04:38:42.060Z,12.10
2019-05-29T04:43:43.815Z,10.50
2019-05-29T04:48:45.477Z,12.77
2019-05-29T04:53:47.077Z,13.73
2019-05-29T04:58:49.163Z,11.13
2019-05-29T05:03:50.677Z,9.60
2019-05-29T05:08:52.570Z,16.30
2019-05-29T05:13:53.989Z,22.67
2019-05-29T05:18:55.685Z,19.87
2019-05-29T05:23:57.193Z,16.83
2019-05-29T05:28:58.769Z,14.13
2019-05-29T05:34:00.392Z,12.67
2019-05-29T05:39:02.251Z,10.37
2019-05-29T05:44:04.116Z,7.47
2019-05-29T05:49:05.668Z,8.50
2019-05-29T05:54:07.215Z,7.40
2019-05-29T05:59:09.056Z,10.27
2019-05-29T06:04:10.925Z,9.30
2019-05-29T06:09:12.863Z,7.60
2019-05-29T06:14:14.799Z,5.67
2019-05-29T06:19:16.537Z,5.47
2019-05-29T06:24:22.544Z,5.77
2019-05-29T06:29:24.154Z,5.50
2019-05-29T06:34:25.641Z,6.97
2019-05-29T06:39:27.254Z,10.03
2019-05-29T06:44:29.532Z,6.43
2019-05-29T06:49:31.602Z,7.37
2019-05-29T06:54:33.146Z,9.47
2019-05-29T06:59:36.084Z,6.23
2019-05-29T07:04:38.357Z,7.63
2019-05-29T07:09:41.054Z,6.40
2019-05-29T07:14:42.544Z,5.00
2019-05-29T07:19:54.158Z,6.30
2019-05-29T07:24:47.505Z,9.47
2019-05-29T07:29:49.074Z,6.73
2019-05-29T07:35:02.781Z,7.53
2019-05-29T07:39:54.442Z,7.67
2019-05-29T07:44:56.922Z,5.27
2019-05-29T07:49:58.835Z,4.47
2019-05-29T07:55:00.316Z,8.30
2019-05-29T08:00:01.898Z,5.37
2019-05-29T08:05:04.106Z,4.07
2019-05-29T08:10:05.761Z,7.60
2019-05-29T08:15:07.321Z,6.50
2019-05-29T08:20:09.261Z,2.37
2019-05-29T08:25:10.789Z,5.62
2019-05-29T08:30:12.712Z,3.95
2019-05-29T08:35:14.435Z,2.30
2019-05-29T08:40:15.951Z,3.05
2019-05-29T08:45:17.481Z,3.42
2019-05-29T08:50:19.468Z,2.25
2019-05-29T08:55:21.578Z,3.87
2019-05-29T09:00:23.459Z,3.83
2019-05-29T09:05:25.131Z,3.67
2019-05-29T09:10:26.553Z,3.22
2019-05-29T09:15:28.454Z,2.52
2019-05-29T09:20:50.223Z,4.30
2019-05-29T09:25:33.897Z,5.05
2019-05-29T09:30:35.356Z,2.62
2019-05-29T09:35:36.883Z,3.47
2019-05-29T09:40:38.438Z,4.72
2019-05-29T09:45:40.307Z,3.47
2019-05-29T09:50:50.147Z,2.58
2019-05-29T09:55:45.880Z,3.52
2019-05-29T10:00:47.388Z,4.58
2019-05-29T10:05:48.925Z,2.67
2019-05-29T10:10:50.499Z,3.62
2019-05-29T10:15:51.974Z,4.55
2019-05-29T10:20:54.762Z,2.85
2019-05-29T10:25:58.825Z,4.17
2019-05-29T10:31:03.733Z,4.62
2019-05-29T10:36:04.659Z,5.12
2019-05-29T10:41:07.457Z,5.47
2019-05-29T10:46:09.540Z,5.85
2019-05-29T10:51:11.044Z,4.60
2019-05-29T10:56:12.654Z,4.58
2019-05-29T11:01:15.261Z,4.83
2019-05-29T11:06:16.800Z,10.48
2019-05-29T11:11:18.413Z,5.10
2019-05-29T11:16:19.960Z,7.25
2019-05-29T11:21:21.498Z,5.60
2019-05-29T11:26:23.480Z,5.15
2019-05-29T11:31:24.897Z,7.45
2019-05-29T11:36:26.337Z,4.63
2019-05-29T11:41:27.764Z,5.85
2019-05-29T11:46:29.608Z,5.10
2019-05-29T11:51:31.574Z,5.10
2019-05-29T11:56:32.955Z,6.12
2019-05-29T12:01:48.958Z,6.80
2019-05-29T12:06:38.121Z,4.37
2019-05-29T12:11:39.648Z,6.03
2019-05-29T12:16:41.178Z,5.95
2019-05-29T12:21:43.043Z,4.15
2019-05-29T12:26:45.020Z,4.47
2019-05-29T12:31:46.514Z,4.37
2019-05-29T12:36:48.164Z,4.50
2019-05-29T12:41:49.748Z,4.25
2019-05-29T12:46:53.618Z,3.75
2019-05-29T12:51:55.447Z,5.00
2019-05-29T12:57:00.658Z,3.87
2019-05-29T13:02:02.776Z,3.90
2019-05-29T13:07:04.788Z,4.28
2019-05-29T13:12:06.349Z,4.45
2019-05-29T13:17:07.929Z,5.05
2019-05-29T13:22:09.674Z,6.83
2019-05-29T13:27:11.225Z,5.28
2019-05-29T13:32:13.079Z,5.12
2019-05-29T13:37:14.579Z,4.97
2019-05-29T13:42:16.340Z,9.45
2019-05-29T13:47:18.209Z,4.72
2019-05-29T13:52:20.180Z,5.00
2019-05-29T13:57:21.780Z,5.20
2019-05-29T14:02:23.414Z,4.80
2019-05-29T14:07:24.932Z,6.03
2019-05-29T14:12:26.811Z,5.50
2019-05-29T14:17:28.422Z,6.67
2019-05-29T14:22:29.964Z,5.70
2019-05-29T14:27:32.662Z,7.35
2019-05-29T14:32:34.471Z,7.03
2019-05-29T14:37:36.322Z,6.10
2019-05-29T14:42:38.161Z,7.33
2019-05-29T14:47:39.865Z,6.40
2019-05-29T14:52:41.739Z,7.15
2019-05-29T14:57:43.566Z,6.72
2019-05-29T15:02:45.078Z,5.97
2019-05-29T15:07:46.627Z,6.92
2019-05-29T15:12:48.133Z,8.63
2019-05-29T15:17:50.089Z,5.83
2019-05-29T15:22:52.011Z,6.78
2019-05-29T15:27:53.565Z,9.43
2019-05-29T15:32:55.443Z,6.22
2019-05-29T15:37:57.697Z,6.83
2019-05-29T15:42:59.258Z,6.12
2019-05-29T15:48:00.743Z,6.12
2019-05-29T15:53:02.336Z,6.67
2019-05-29T15:58:03.893Z,8.98
2019-05-29T16:03:05.788Z,6.28
2019-05-29T16:08:07.949Z,7.80
2019-05-29T16:13:11.017Z,8.40
2019-05-29T16:18:26.206Z,8.53
2019-05-29T16:23:30.737Z,8.00
2019-05-29T16:28:19.838Z,7.90
2019-05-29T16:33:21.579Z,9.35
2019-05-29T16:38:23.415Z,8.48
2019-05-29T16:43:24.881Z,7.85
2019-05-29T16:48:26.381Z,10.00
2019-05-29T16:53:28.288Z,9.75
2019-05-29T16:58:29.891Z,10.32
2019-05-29T17:03:31.434Z,9.48
2019-05-29T17:08:32.973Z,8.33
2019-05-29T17:13:34.802Z,8.88
2019-05-29T17:18:36.275Z,9.43
2019-05-29T17:23:38.622Z,7.80
2019-05-29T17:28:40.982Z,8.38
2019-05-29T17:33:42.856Z,9.73
2019-05-29T17:38:44.437Z,9.38
2019-05-29T17:43:46.004Z,8.98
2019-05-29T17:48:48.085Z,9.95
2019-05-29T17:53:50.356Z,10.98
2019-05-29T17:58:51.962Z,11.35
2019-05-29T18:03:53.467Z,10.30
2019-05-29T18:08:55.064Z,11.85
2019-05-29T18:13:56.548Z,12.20
2019-05-29T18:18:57.922Z,13.65
2019-05-29T18:24:00.473Z,12.65
2019-05-29T18:29:01.822Z,11.83
2019-05-29T18:34:03.086Z,11.75
2019-05-29T18:39:06.197Z,13.58
2019-05-29T18:44:07.561Z,11.15
2019-05-29T18:49:09.283Z,12.80
2019-05-29T18:54:11.940Z,13.98
2019-05-29T18:59:16.067Z,15.85
2019-05-29T19:04:18.933Z,17.45
2019-05-29T19:09:21.683Z,13.03
2019-05-29T19:14:24.013Z,14.70
2019-05-29T19:19:26.170Z,12.70
2019-05-29T19:24:28.585Z,10.43
2019-05-29T19:29:31.219Z,9.00
2019-05-29T19:34:33.689Z,11.65
2019-05-29T19:39:35.277Z,9.45
2019-05-29T19:44:36.815Z,9.53
2019-05-29T19:49:38.452Z,11.25
2019-05-29T19:54:40.109Z,10.78
2019-05-29T19:59:41.634Z,12.60
2019-05-29T20:04:43.287Z,12.15
2019-05-29T20:09:45.231Z,9.33
2019-05-29T20:14:46.968Z,8.78
2019-05-29T20:19:48.609Z,7.22
2019-05-29T20:24:50.208Z,5.70
2019-05-29T20:29:51.782Z,5.33
2019-05-29T20:34:53.276Z,5.03
2019-05-29T20:39:54.989Z,8.28
2019-05-29T20:44:56.676Z,5.70
2019-05-29T20:49:58.195Z,5.08
2019-05-29T20:54:59.680Z,4.35
2019-05-29T21:00:03.568Z,7.12
2019-05-29T21:05:05.241Z,7.90
2019-05-29T21:10:06.788Z,6.60
2019-05-29T21:15:08.760Z,5.47
2019-05-29T21:20:10.677Z,10.35
2019-05-29T21:25:17.134Z,5.62
2019-05-29T21:30:15.658Z,6.50
2019-05-29T21:35:17.245Z,7.80
2019-05-29T21:40:18.748Z,6.55
2019-05-29T21:45:20.674Z,8.28
2019-05-29T21:50:22.177Z,7.78
2019-05-29T21:55:24.111Z,9.38
2019-05-29T22:00:25.634Z,6.67
2019-05-29T22:05:27.179Z,8.13
2019-05-29T22:10:28.694Z,10.58
2019-05-29T22:15:30.183Z,9.03
2019-05-29T22:20:31.494Z,9.95
2019-05-29T22:25:34.505Z,8.28
2019-05-29T22:30:36.484Z,11.20
2019-05-29T22:35:38.006Z,9.78
2019-05-29T22:40:39.531Z,12.90
2019-05-29T22:45:41.084Z,14.98
2019-05-29T22:50:42.568Z,9.23
2019-05-29T22:55:44.085Z,9.13
2019-05-29T23:00:45.588Z,5.55
2019-05-29T23:05:47.157Z,11.95
2019-05-29T23:10:48.673Z,6.58
2019-05-29T23:15:50.282Z,11.88
2019-05-29T23:20:52.371Z,10.43
2019-05-29T23:25:54.527Z,11.30
2019-05-29T23:30:56.684Z,14.03
2019-05-29T23:35:59.087Z,10.45
2019-05-29T23:41:01.489Z,12.13
2019-05-29T23:46:04.023Z,11.33
2019-05-29T23:51:05.617Z,13.65
2019-05-29T23:56:06.883Z,17.62
